Klamath, CA

6:26 AM PDT on July 27, 2016 (GMT -0700)
Klamath Glen | | Change Station

Elev 46 ft 41.52 °N, 124.00 °W | Updated 13 minutes ago

Mist
Mist
54.5 °F
Feels Like 54.5 °F
N
2.2
Wind Variable Wind from WNW

Today
High -- | Low -- °F
--% Chance of Precip.
Yesterday
High -- | Low -- °F
Precip. -- in
Pressure 29.95 in
Visibility 0.8 miles
Clouds
Dew Point 53 °F
Humidity 95%
Rainfall 0.00 in
Snow Depth Not available.
6:06 AM 8:38 PM
Last Quarter, 43% visible
SPECI KCEC 271315Z AUTO 02003KT 3/4SM BR VV002 13/12 A2995 RMK AO2 T01280122
Pressure 29.95 in
Visibility 0.8 miles
Clouds
Dew Point 53 °F
Humidity 95%
Rainfall 0.00 in
Snow Depth Not available.
6:06 AM 8:38 PM
Last Quarter, 43% visible
SPECI KCEC 271315Z AUTO 02003KT 3/4SM BR VV002 13/12 A2995 RMK AO2 T01280122

10-Day Weather Forecast

Almanac

Astronomy

Jul. 27, 2016 Rise Set
Actual Time
Civil Twilight
Nautical Twilight
Astronomical Twilight
Moon
Length of Visible Light
Length of Day
Tomorrow will be .
, % of the Moon is Illuminated

Today's Extremes

State Highs State Lows

Community

WunderPhotos

Upload Photos

1,927,842 photos uploaded!

WunderBlog® & News

Nearby

Air Quality

  Air Quality AQ Index Pollutant
Not available.

Snow Depth

Station Depth Elevation

Earthquake Activity

City Distance Mag. Time & Date
Minimum magnitude displayed is 2.5.

Coastal Water Temperatures

Place Temperature

Stations

Nearby Weather Stations

Station Location Temp. Windchill Dew Point Humidity Wind Precip. Elev Updated Type
                   

Watches & Warnings

There are currently no watches in effect.